Time,TemperatureF,DewpointF,PressureIn,WindDirection,WindDirectionDegrees,WindSpeedMPH,WindSpeedGustMPH,Humidity,HourlyPrecipIn,Conditions,Clouds,dailyrainin,SoftwareType,DateUTC
2015-04-25 00:01:00,44.0,27.0,29.79,South,186,1.0,6.0,51,-99.99,,,-99.99,,2015-04-25 07:01:00,
2015-04-25 00:21:00,43.0,27.0,29.78,SSE,160,0.0,6.0,53,-99.99,,,-99.99,,2015-04-25 07:21:00,
2015-04-25 00:31:00,43.0,28.0,29.75,SSE,157,0.0,7.0,54,-99.99,,,-99.99,,2015-04-25 07:31:00,
2015-04-25 00:41:00,43.0,28.0,29.75,SSE,151,0.0,0.0,54,-99.99,,,-99.99,,2015-04-25 07:41:00,
2015-04-25 01:01:00,43.0,28.0,29.75,SSE,151,0.0,0.0,54,-99.99,,,-99.99,,2015-04-25 08:01:00,
2015-04-25 01:11:00,43.0,28.0,29.75,SE,140,0.0,6.0,54,-99.99,,,-99.99,,2015-04-25 08:11:00,
2015-04-25 01:21:00,43.0,28.0,29.75,SE,137,0.0,5.0,54,-99.99,,,-99.99,,2015-04-25 08:21:00,
2015-04-25 01:31:00,43.0,28.0,29.77,SSE,167,0.0,6.0,55,-99.99,,,-99.99,,2015-04-25 08:31:00,
2015-04-25 01:42:00,43.0,30.0,29.76,SSW,206,2.0,11.0,59,-99.99,,,-99.99,,2015-04-25 08:42:00,
2015-04-25 02:01:00,43.0,30.0,29.75,SSE,157,0.0,10.0,60,-99.99,,,-99.99,,2015-04-25 09:01:00,
2015-04-25 02:21:00,43.0,31.0,29.75,South,184,2.0,11.0,62,-99.99,,,-99.99,,2015-04-25 09:21:00,
2015-04-25 02:31:00,42.0,31.0,29.74,SSW,202,0.0,11.0,64,-99.99,,,-99.99,,2015-04-25 09:31:00,
2015-04-25 02:41:00,41.0,31.0,29.74,SSE,168,5.0,14.0,68,-99.99,,,-99.99,,2015-04-25 09:41:00,
2015-04-25 03:01:00,41.0,32.0,29.73,South,184,1.0,11.0,70,-99.99,,,-99.99,,2015-04-25 10:01:00,
2015-04-25 03:21:00,40.0,32.0,29.73,South,181,2.0,6.0,73,-99.99,,,-99.99,,2015-04-25 10:21:00,
2015-04-25 04:01:00,39.0,32.0,29.72,South,182,0.0,0.0,77,-99.99,,,-99.99,,2015-04-25 11:01:00,
2015-04-25 04:11:00,39.0,32.0,29.72,SSW,200,0.0,0.0,77,-99.99,,,-99.99,,2015-04-25 11:11:00,
2015-04-25 04:31:00,38.0,32.0,29.70,South,179,2.0,8.0,78,-99.99,,,-99.99,,2015-04-25 11:31:00,
2015-04-25 04:41:00,38.0,31.0,29.72,SW,216,0.0,8.0,77,-99.99,,,-99.99,,2015-04-25 11:41:00,
2015-04-25 05:01:00,38.0,32.0,29.72,SSW,202,0.0,6.0,78,-99.99,,,-99.99,,2015-04-25 12:01:00,
2015-04-25 05:11:00,38.0,32.0,29.72,SSW,203,0.0,0.0,78,-99.99,,,-99.99,,2015-04-25 12:11:00,
2015-04-25 05:21:00,38.0,32.0,29.72,South,172,3.0,7.0,78,-99.99,,,-99.99,,2015-04-25 12:21:00,
2015-04-25 05:31:00,38.0,32.0,29.72,SSE,162,2.0,8.0,79,-99.99,,,-99.99,,2015-04-25 12:31:00,
2015-04-25 05:41:00,38.0,32.0,29.72,SSE,158,0.0,8.0,80,-99.99,,,-99.99,,2015-04-25 12:41:00,
2015-04-25 06:11:00,38.0,32.0,29.72,SSW,195,0.0,0.0,79,-99.99,,,-99.99,,2015-04-25 13:11:00,
2015-04-25 06:21:00,38.0,32.0,29.72,NNW,328,3.0,6.0,80,-99.99,,,-99.99,,2015-04-25 13:21:00,
2015-04-25 06:31:00,37.0,31.0,29.72,West,275,0.0,1.0,80,-99.99,,,-99.99,,2015-04-25 13:31:00,
2015-04-25 06:41:00,37.0,32.0,29.74,WNW,291,0.0,0.0,81,-99.99,,,-99.99,,2015-04-25 13:41:00,
2015-04-25 07:01:00,37.0,32.0,29.72,West,271,0.0,0.0,82,-99.99,,,-99.99,,2015-04-25 14:01:00,
2015-04-25 07:31:00,36.0,31.0,29.73,NW,311,0.0,6.0,83,-99.99,,,-99.99,,2015-04-25 14:31:00,
2015-04-25 07:41:00,37.0,33.0,29.73,WSW,247,2.0,6.0,84,-99.99,,,-99.99,,2015-04-25 14:41:00,
2015-04-25 08:01:00,36.0,31.0,29.75,WSW,258,0.0,6.0,83,-99.99,,,-99.99,,2015-04-25 15:01:00,
2015-04-25 08:11:00,36.0,32.0,29.75,WSW,240,0.0,6.0,84,-99.99,,,-99.99,,2015-04-25 15:11:00,
2015-04-25 08:21:00,36.0,32.0,29.76,West,272,3.0,6.0,84,-99.99,,,-99.99,,2015-04-25 15:21:00,
2015-04-25 08:41:00,35.0,31.0,29.78,NNW,335,3.0,11.0,86,-99.99,,,-99.99,,2015-04-25 15:41:00,
2015-04-25 09:01:00,34.0,30.0,29.77,NW,323,1.0,7.0,86,-99.99,,,-99.99,,2015-04-25 16:01:00,
2015-04-25 09:11:00,34.0,31.0,29.78,WNW,292,3.0,7.0,88,-99.99,,,-99.99,,2015-04-25 16:11:00,
2015-04-25 09:21:00,34.0,31.0,29.79,NW,320,0.0,6.0,89,-99.99,,,-99.99,,2015-04-25 16:21:00,
2015-04-25 09:41:00,35.0,32.0,29.79,WNW,289,0.0,8.0,90,-99.99,,,-99.99,,2015-04-25 16:41:00,
2015-04-25 09:51:00,36.0,33.0,29.78,West,268,0.0,7.0,90,-99.99,,,-99.99,,2015-04-25 16:51:00,
2015-04-25 10:01:00,36.0,33.0,29.78,West,268,0.0,7.0,90,-99.99,,,-99.99,,2015-04-25 17:01:00,
2015-04-25 10:11:00,37.0,34.0,29.79,NNW,332,4.0,11.0,87,-99.99,,,-99.99,,2015-04-25 17:11:00,
2015-04-25 10:31:00,38.0,33.0,29.80,West,277,1.0,11.0,83,-99.99,,,-99.99,,2015-04-25 17:31:00,
2015-04-25 10:42:00,39.0,33.0,29.80,WSW,244,1.0,10.0,80,-99.99,,,-99.99,,2015-04-25 17:42:00,
2015-04-25 11:01:00,39.0,33.0,29.80,NW,315,1.0,10.0,78,-99.99,,,-99.99,,2015-04-25 18:01:00,
2015-04-25 11:11:00,40.0,33.0,29.80,NNW,343,7.0,11.0,77,-99.99,,,-99.99,,2015-04-25 18:11:00,
2015-04-25 11:21:00,41.0,34.0,29.82,NNW,330,4.0,11.0,75,-99.99,,,-99.99,,2015-04-25 18:21:00,
2015-04-25 11:31:00,41.0,33.0,29.83,North,349,7.0,13.0,73,-99.99,,,-99.99,,2015-04-25 18:31:00,
2015-04-25 11:42:00,42.0,32.0,29.83,NNW,329,5.0,12.0,67,-99.99,,,-99.99,,2015-04-25 18:42:00,
2015-04-25 12:01:00,42.0,31.0,29.81,North,356,4.0,12.0,64,-99.99,,,-99.99,,2015-04-25 19:01:00,
2015-04-25 12:11:00,42.0,30.0,29.81,North,359,2.0,13.0,62,-99.99,,,-99.99,,2015-04-25 19:11:00,
2015-04-25 12:42:00,44.0,31.0,29.82,West,264,5.0,13.0,60,-99.99,,,-99.99,,2015-04-25 19:42:00,
2015-04-25 14:01:00,46.0,27.0,29.81,NW,311,5.0,13.0,47,-99.99,,,-99.99,,2015-04-25 21:01:00,
2015-04-25 14:11:00,46.0,24.0,29.81,West,265,3.0,14.0,41,-99.99,,,-99.99,,2015-04-25 21:11:00,
2015-04-25 14:21:00,46.0,28.0,29.82,South,189,3.0,14.0,49,-99.99,,,-99.99,,2015-04-25 21:21:00,
2015-04-25 14:41:00,47.0,27.0,29.82,WSW,256,3.0,11.0,46,-99.99,,,-99.99,,2015-04-25 21:41:00,
2015-04-25 14:51:00,50.0,27.0,29.81,WSW,248,4.0,13.0,40,-99.99,,,-99.99,,2015-04-25 21:51:00,
2015-04-25 15:10:00,47.0,26.0,29.81,WSW,256,7.0,18.0,43,-99.99,,,-99.99,,2015-04-25 22:10:00,
2015-04-25 15:21:00,45.0,30.0,29.83,WSW,257,2.0,14.0,56,-99.99,,,-99.99,,2015-04-25 22:21:00,
2015-04-25 15:31:00,46.0,27.0,29.82,WSW,241,5.0,16.0,48,-99.99,,,-99.99,,2015-04-25 22:31:00,
2015-04-25 15:41:00,49.0,25.0,29.83,WNW,296,3.0,16.0,39,-99.99,,,-99.99,,2015-04-25 22:41:00,
2015-04-25 16:11:00,50.0,22.0,29.81,WSW,256,7.0,18.0,33,-99.99,,,-99.99,,2015-04-25 23:11:00,
2015-04-25 16:21:00,50.0,23.0,29.80,WNW,295,10.0,14.0,35,-99.99,,,-99.99,,2015-04-25 23:21:00,
2015-04-25 16:31:00,49.0,26.0,29.81,NNW,329,7.0,16.0,41,-99.99,,,-99.99,,2015-04-25 23:31:00,
2015-04-25 16:41:00,50.0,27.0,29.82,NNW,337,6.0,14.0,40,-99.99,,,-99.99,,2015-04-25 23:41:00,
2015-04-25 17:01:00,50.0,24.0,29.81,West,275,6.0,12.0,36,-99.99,,,-99.99,,2015-04-26 00:01:00,
2015-04-25 17:11:00,50.0,24.0,29.81,WNW,285,6.0,19.0,36,-99.99,,,-99.99,,2015-04-26 00:11:00,
2015-04-25 17:21:00,52.0,25.0,29.82,SW,232,5.0,14.0,35,-99.99,,,-99.99,,2015-04-26 00:21:00,
2015-04-25 17:31:00,51.0,25.0,29.82,SW,222,5.0,16.0,36,-99.99,,,-99.99,,2015-04-26 00:31:00,
2015-04-25 17:42:00,51.0,24.0,29.83,SSW,209,4.0,16.0,34,-99.99,,,-99.99,,2015-04-26 00:42:00,
2015-04-25 18:01:00,49.0,25.0,29.83,North,4,8.0,14.0,38,-99.99,,,-99.99,,2015-04-26 01:01:00,
2015-04-25 18:11:00,49.0,24.0,29.83,NW,306,6.0,12.0,37,-99.99,,,-99.99,,2015-04-26 01:11:00,
2015-04-25 18:21:00,49.0,25.0,29.84,NNW,343,3.0,12.0,38,-99.99,,,-99.99,,2015-04-26 01:21:00,
2015-04-25 18:41:00,48.0,24.0,29.83,West,277,4.0,11.0,38,-99.99,,,-99.99,,2015-04-26 01:41:00,
2015-04-25 19:01:00,48.0,22.0,29.83,West,280,5.0,14.0,36,-99.99,,,-99.99,,2015-04-26 02:01:00,
2015-04-25 19:11:00,48.0,22.0,29.83,West,260,2.0,14.0,36,-99.99,,,-99.99,,2015-04-26 02:11:00,
2015-04-25 19:21:00,47.0,21.0,29.84,NW,322,7.0,14.0,35,-99.99,,,-99.99,,2015-04-26 02:21:00,
2015-04-25 19:31:00,47.0,23.0,29.86,NNW,335,2.0,11.0,38,-99.99,,,-99.99,,2015-04-26 02:31:00,
2015-04-25 19:41:00,47.0,23.0,29.86,NNW,332,4.0,12.0,38,-99.99,,,-99.99,,2015-04-26 02:41:00,
2015-04-25 19:51:00,47.0,24.0,29.87,NNW,342,2.0,10.0,40,-99.99,,,-99.99,,2015-04-26 02:51:00,
2015-04-25 20:01:00,47.0,24.0,29.88,NNW,336,4.0,12.0,40,-99.99,,,-99.99,,2015-04-26 03:01:00,